createdAt,value
2023-04-16T00:00:03.362Z,6.97
2023-04-16T00:02:31.063Z,7.60
2023-04-16T00:04:58.679Z,4.72
2023-04-16T00:07:26.176Z,9.30
2023-04-16T00:09:53.561Z,10.52
2023-04-16T00:12:21.056Z,8.23
2023-04-16T00:14:49.276Z,3.35
2023-04-16T00:17:16.707Z,5.25
2023-04-16T00:19:44.405Z,13.82
2023-04-16T00:22:11.799Z,5.00
2023-04-16T00:24:39.168Z,5.25
2023-04-16T00:27:06.932Z,4.68
2023-04-16T00:29:34.954Z,5.22
2023-04-16T00:32:02.496Z,3.75
2023-04-16T00:34:30.089Z,5.03
2023-04-16T00:36:57.534Z,8.50
2023-04-16T00:39:25.238Z,3.22
2023-04-16T00:41:52.779Z,3.35
2023-04-16T00:44:20.232Z,12.05
2023-04-16T00:46:47.994Z,3.42
2023-04-16T00:49:15.586Z,2.70
2023-04-16T00:51:43.206Z,3.78
2023-04-16T00:54:10.762Z,6.05
2023-04-16T00:56:38.879Z,5.25
2023-04-16T00:59:06.836Z,3.60
2023-04-16T01:01:34.379Z,6.38
2023-04-16T01:04:02.064Z,4.43
2023-04-16T01:06:29.685Z,7.18
2023-04-16T01:08:57.117Z,6.07
2023-04-16T01:11:25.292Z,6.03
2023-04-16T01:13:52.921Z,5.85
2023-04-16T01:16:21.037Z,5.43
2023-04-16T01:18:48.508Z,5.97
2023-04-16T01:21:16.309Z,7.25
2023-04-16T01:23:43.741Z,6.38
2023-04-16T01:26:11.273Z,8.70
2023-04-16T01:28:38.753Z,9.82
2023-04-16T01:31:06.290Z,8.55
2023-04-16T01:33:33.722Z,5.35
2023-04-16T01:36:01.324Z,4.60
2023-04-16T01:38:29.057Z,6.65
2023-04-16T01:41:00.451Z,6.32
2023-04-16T01:43:27.882Z,6.65
2023-04-16T01:46:20.836Z,6.30
2023-04-16T01:48:48.854Z,8.07
2023-04-16T01:51:16.282Z,6.85
2023-04-16T01:53:43.685Z,6.18
2023-04-16T01:56:11.216Z,13.70
2023-04-16T01:58:38.740Z,5.65
2023-04-16T02:01:06.895Z,11.98
2023-04-16T02:03:34.809Z,9.27
2023-04-16T02:06:02.525Z,9.80
2023-04-16T02:08:29.913Z,7.00
2023-04-16T02:10:58.280Z,5.63
2023-04-16T02:13:26.250Z,8.05
2023-04-16T02:15:53.889Z,7.20
2023-04-16T02:18:21.540Z,6.35
2023-04-16T02:20:49.912Z,7.95
2023-04-16T02:23:17.594Z,9.88
2023-04-16T02:25:46.986Z,8.13
2023-04-16T02:28:16.515Z,7.63
2023-04-16T02:30:44.325Z,9.50
2023-04-16T02:33:12.614Z,7.35
2023-04-16T02:35:40.748Z,10.85
2023-04-16T02:38:08.890Z,10.23
2023-04-16T02:40:36.745Z,6.13
2023-04-16T02:43:04.375Z,5.47
2023-04-16T02:45:31.840Z,11.38
2023-04-16T02:48:00.263Z,8.75
2023-04-16T02:50:27.787Z,7.88
2023-04-16T02:52:55.245Z,7.20
2023-04-16T02:55:22.888Z,7.22
2023-04-16T02:57:50.322Z,8.55
2023-04-16T03:00:18.146Z,8.98
2023-04-16T03:02:45.744Z,6.93
2023-04-16T03:05:13.213Z,6.22
2023-04-16T03:07:40.986Z,8.40
2023-04-16T03:10:09.344Z,7.30
2023-04-16T03:12:36.856Z,11.90
2023-04-16T03:15:04.705Z,9.38
2023-04-16T03:17:32.282Z,10.77
2023-04-16T03:19:59.864Z,11.13
2023-04-16T03:22:27.233Z,11.43
2023-04-16T03:24:54.758Z,12.70
2023-04-16T03:27:22.187Z,12.70
2023-04-16T03:29:49.637Z,8.27
2023-04-16T03:32:17.682Z,12.57
2023-04-16T03:34:45.157Z,12.63
2023-04-16T03:37:12.611Z,12.73
2023-04-16T03:39:40.490Z,13.77
2023-04-16T03:42:07.953Z,11.20
2023-04-16T03:44:35.549Z,11.95
2023-04-16T03:47:02.997Z,11.85
2023-04-16T03:49:30.522Z,12.68
2023-04-16T03:51:57.925Z,12.50
2023-04-16T03:54:25.475Z,11.05
2023-04-16T03:56:52.921Z,12.88
2023-04-16T03:59:20.440Z,14.40
2023-04-16T04:01:48.251Z,12.25
2023-04-16T04:04:15.836Z,12.27
2023-04-16T04:06:45.181Z,15.90
2023-04-16T04:09:12.965Z,14.80
2023-04-16T04:11:40.421Z,16.10
2023-04-16T04:14:07.882Z,17.42
2023-04-16T04:16:35.887Z,14.55
2023-04-16T04:19:03.398Z,19.90
2023-04-16T04:21:31.819Z,14.05
2023-04-16T04:23:59.298Z,18.77
2023-04-16T04:26:26.756Z,16.20
2023-04-16T04:28:54.248Z,15.73
2023-04-16T04:31:21.778Z,17.42
2023-04-16T04:33:49.526Z,13.52
2023-04-16T04:36:17.362Z,16.15
2023-04-16T04:38:45.341Z,15.13
2023-04-16T04:41:12.746Z,16.52
2023-04-16T04:43:40.163Z,17.63
2023-04-16T04:46:07.665Z,15.07
2023-04-16T04:48:35.469Z,15.07
2023-04-16T04:51:04.992Z,17.27
2023-04-16T04:53:32.984Z,17.95
2023-04-16T04:56:11.131Z,19.30
2023-04-16T04:58:40.673Z,14.52
2023-04-16T05:01:08.215Z,23.77
2023-04-16T05:03:36.217Z,21.75
2023-04-16T05:06:03.781Z,15.02
2023-04-16T05:08:31.185Z,17.98
2023-04-16T05:10:58.676Z,14.82
2023-04-16T05:13:26.284Z,23.73
2023-04-16T05:15:53.687Z,18.40
2023-04-16T05:18:21.426Z,19.33
2023-04-16T05:20:48.934Z,18.38
2023-04-16T05:23:16.436Z,17.25
2023-04-16T05:25:44.109Z,21.98
2023-04-16T05:28:11.535Z,16.15
2023-04-16T05:30:38.984Z,15.45
2023-04-16T05:33:06.527Z,16.20
2023-04-16T05:35:35.161Z,18.98
2023-04-16T05:38:04.440Z,18.05
2023-04-16T05:40:32.622Z,14.52
2023-04-16T05:43:00.161Z,16.75
2023-04-16T05:45:28.147Z,19.48
2023-04-16T05:47:55.990Z,16.02
2023-04-16T05:50:23.400Z,14.93
2023-04-16T05:52:50.891Z,14.85
2023-04-16T05:55:18.586Z,17.65
2023-04-16T05:57:46.573Z,18.00
2023-04-16T06:00:14.167Z,16.33
2023-04-16T06:02:41.976Z,15.18
2023-04-16T06:05:09.667Z,14.55
2023-04-16T06:07:37.093Z,17.08
2023-04-16T06:10:05.725Z,15.43
2023-04-16T06:12:33.102Z,13.85
2023-04-16T06:15:01.128Z,16.02
2023-04-16T06:17:28.869Z,22.30
2023-04-16T06:19:56.655Z,13.50
2023-04-16T06:22:24.673Z,14.15
2023-04-16T06:24:53.082Z,18.70
2023-04-16T06:27:20.443Z,11.05
2023-04-16T06:29:47.834Z,12.70
2023-04-16T06:32:17.327Z,13.85
2023-04-16T06:34:44.724Z,14.57
2023-04-16T06:37:12.204Z,15.90
2023-04-16T06:39:40.132Z,15.10
2023-04-16T06:42:07.696Z,13.63
2023-04-16T06:44:36.012Z,14.90
2023-04-16T06:47:03.579Z,10.65
2023-04-16T06:49:31.120Z,12.20
2023-04-16T06:51:58.578Z,16.58
2023-04-16T06:54:26.052Z,18.60
2023-04-16T06:56:53.443Z,11.48
2023-04-16T06:59:20.832Z,15.73
2023-04-16T07:01:48.691Z,17.08
2023-04-16T07:04:17.042Z,19.55
2023-04-16T07:06:44.982Z,18.13
2023-04-16T07:09:12.944Z,17.05
2023-04-16T07:11:40.923Z,15.63
2023-04-16T07:14:08.456Z,15.07
2023-04-16T07:16:38.091Z,12.77
2023-04-16T07:19:07.019Z,18.80
2023-04-16T07:21:34.823Z,16.38
2023-04-16T07:24:02.891Z,14.02
2023-04-16T07:26:30.551Z,16.27
2023-04-16T07:28:58.010Z,13.75
2023-04-16T07:31:25.617Z,18.27
2023-04-16T07:33:53.215Z,14.68
2023-04-16T07:36:21.104Z,14.32
2023-04-16T07:38:48.744Z,14.40
2023-04-16T07:41:16.245Z,14.38
2023-04-16T07:43:43.678Z,14.48
2023-04-16T07:46:11.215Z,15.38
2023-04-16T07:48:38.954Z,16.98
2023-04-16T07:51:06.806Z,18.55
2023-04-16T07:53:34.326Z,14.60
2023-04-16T07:56:01.780Z,11.55
2023-04-16T07:58:29.241Z,14.90
2023-04-16T08:00:57.143Z,19.50
2023-04-16T08:03:24.859Z,20.00
2023-04-16T08:05:52.653Z,17.30
2023-04-16T08:08:20.331Z,17.20
2023-04-16T08:10:48.150Z,20.40
2023-04-16T08:13:15.592Z,21.95
2023-04-16T08:15:43.094Z,18.25
2023-04-16T08:18:15.588Z,17.08
2023-04-16T08:20:43.585Z,14.00
2023-04-16T08:23:11.954Z,16.88
2023-04-16T08:25:39.435Z,20.63
2023-04-16T08:28:06.983Z,21.10
2023-04-16T08:30:34.804Z,14.35
2023-04-16T08:33:02.632Z,21.38
2023-04-16T08:35:30.231Z,19.08
2023-04-16T08:38:00.543Z,15.82
2023-04-16T08:40:30.759Z,14.63
2023-04-16T08:43:00.560Z,19.20
2023-04-16T08:45:28.169Z,19.75
2023-04-16T08:47:55.591Z,20.10
2023-04-16T08:50:25.615Z,21.65
2023-04-16T08:52:53.868Z,24.95
2023-04-16T08:55:37.685Z,22.02
2023-04-16T08:58:14.944Z,23.52
2023-04-16T09:00:42.832Z,18.38
2023-04-16T09:03:11.290Z,22.83
2023-04-16T09:05:39.421Z,21.80
2023-04-16T09:08:07.448Z,19.85
2023-04-16T09:10:35.618Z,24.67
2023-04-16T09:13:03.079Z,19.20
2023-04-16T09:15:31.483Z,20.90
2023-04-16T09:17:59.948Z,20.42
2023-04-16T09:20:27.370Z,23.63
2023-04-16T09:22:54.863Z,23.80
2023-04-16T09:25:22.793Z,23.98
2023-04-16T09:27:51.298Z,17.33
2023-04-16T09:30:23.413Z,27.38
2023-04-16T09:32:52.546Z,21.48
2023-04-16T09:35:20.657Z,18.88
2023-04-16T09:37:58.197Z,26.33
2023-04-16T09:40:27.434Z,32.70
2023-04-16T09:42:57.856Z,28.83
2023-04-16T09:45:25.418Z,24.60
2023-04-16T09:47:52.841Z,27.65
2023-04-16T09:50:20.695Z,26.13
2023-04-16T09:52:51.778Z,26.92
2023-04-16T09:55:27.832Z,26.10
2023-04-16T09:58:02.070Z,26.08
2023-04-16T10:00:31.579Z,27.05
2023-04-16T10:03:06.830Z,23.55
2023-04-16T10:05:34.680Z,23.40
2023-04-16T10:08:02.365Z,25.58
2023-04-16T10:10:30.676Z,22.73
2023-04-16T10:12:58.749Z,27.95
2023-04-16T10:15:26.421Z,26.80
2023-04-16T10:17:54.780Z,24.92
2023-04-16T10:20:24.018Z,26.48
2023-04-16T10:22:51.836Z,22.10
2023-04-16T10:25:19.632Z,21.33
2023-04-16T10:27:47.542Z,23.75
2023-04-16T10:30:17.003Z,24.83
2023-04-16T10:32:45.540Z,26.92
2023-04-16T10:35:19.277Z,16.25
2023-04-16T10:37:47.553Z,22.98
2023-04-16T10:40:27.576Z,22.08
2023-04-16T10:43:01.720Z,18.40
2023-04-16T10:45:37.484Z,26.40
2023-04-16T10:48:06.609Z,24.75
2023-04-16T10:50:37.584Z,24.70
2023-04-16T10:53:31.268Z,23.60
2023-04-16T10:56:12.897Z,23.33
2023-04-16T10:58:40.484Z,22.75
2023-04-16T11:01:16.665Z,19.08
2023-04-16T11:03:48.311Z,27.15
2023-04-16T11:06:17.914Z,23.73
2023-04-16T11:11:17.999Z,20.88
2023-04-16T11:13:46.311Z,24.40
2023-04-16T11:16:14.537Z,14.88
2023-04-16T11:18:51.031Z,22.90
2023-04-16T11:21:20.231Z,21.73
2023-04-16T11:23:53.591Z,20.48
2023-04-16T11:26:31.029Z,19.98
2023-04-16T11:29:00.280Z,16.73
2023-04-16T11:31:27.962Z,22.92
2023-04-16T11:33:57.145Z,19.75
2023-04-16T11:36:26.949Z,21.30
2023-04-16T11:39:02.544Z,19.92
2023-04-16T11:41:29.974Z,22.00
2023-04-16T11:43:57.608Z,16.17
2023-04-16T11:46:38.578Z,21.08
2023-04-16T11:49:06.088Z,17.90
2023-04-16T11:51:33.554Z,21.80
2023-04-16T11:54:01.114Z,24.85
2023-04-16T11:56:31.108Z,18.92
2023-04-16T11:59:08.674Z,18.58
2023-04-16T12:01:37.904Z,21.15
2023-04-16T12:04:08.133Z,20.42
2023-04-16T12:06:36.434Z,20.55
2023-04-16T12:09:23.901Z,20.20
2023-04-16T12:11:51.721Z,21.02
2023-04-16T12:14:19.529Z,23.58
2023-04-16T12:16:47.263Z,23.48
2023-04-16T12:19:15.173Z,21.20
2023-04-16T12:21:45.185Z,18.95
2023-04-16T12:24:14.916Z,19.90
2023-04-16T12:26:52.234Z,23.90
2023-04-16T12:29:25.768Z,25.85
2023-04-16T12:31:54.482Z,26.55
2023-04-16T12:34:27.699Z,20.75
2023-04-16T12:37:10.710Z,24.27
2023-04-16T12:39:38.279Z,21.30
2023-04-16T12:42:09.904Z,24.83
2023-04-16T12:44:37.457Z,21.77
2023-04-16T12:47:05.719Z,23.27
2023-04-16T12:49:33.114Z,20.55
2023-04-16T12:52:00.708Z,24.67
2023-04-16T12:54:31.445Z,20.70
2023-04-16T12:56:58.889Z,22.83
2023-04-16T12:59:26.463Z,21.15
2023-04-16T13:01:54.023Z,29.42
2023-04-16T13:04:24.281Z,17.10
2023-04-16T13:06:53.201Z,20.10
2023-04-16T13:09:20.618Z,22.65
2023-04-16T13:11:48.005Z,30.60
2023-04-16T13:14:15.510Z,26.45
2023-04-16T13:16:42.980Z,26.27
2023-04-16T13:19:10.603Z,26.50
2023-04-16T13:21:38.387Z,22.15
2023-04-16T13:24:06.274Z,20.50
2023-04-16T13:26:33.790Z,22.08
2023-04-16T13:29:01.421Z,20.83
2023-04-16T13:31:28.998Z,27.58
2023-04-16T13:33:56.462Z,19.08
2023-04-16T13:36:25.651Z,21.25
2023-04-16T13:38:54.926Z,21.70
2023-04-16T13:41:22.373Z,19.30
2023-04-16T13:43:49.919Z,22.05
2023-04-16T13:46:17.423Z,24.13
2023-04-16T13:48:46.255Z,23.70
2023-04-16T13:51:15.612Z,19.58
2023-04-16T13:53:43.035Z,20.08
2023-04-16T13:56:11.469Z,21.63
2023-04-16T13:58:40.328Z,18.38
2023-04-16T14:01:08.355Z,23.42
2023-04-16T14:03:37.766Z,22.35
2023-04-16T14:06:05.767Z,25.02
2023-04-16T14:08:33.163Z,24.38
2023-04-16T14:11:01.518Z,24.20
2023-04-16T14:13:29.065Z,22.77
2023-04-16T14:15:56.695Z,23.08
2023-04-16T14:18:24.155Z,23.02
2023-04-16T14:20:51.657Z,26.92
2023-04-16T14:23:19.077Z,24.77
2023-04-16T14:25:46.482Z,20.45
2023-04-16T14:28:15.685Z,22.85
2023-04-16T14:30:43.425Z,25.30
2023-04-16T14:33:10.977Z,23.13
2023-04-16T14:35:38.587Z,19.75
2023-04-16T14:38:06.049Z,23.55
2023-04-16T14:40:34.675Z,24.10
2023-04-16T14:43:02.217Z,21.60
2023-04-16T14:45:30.997Z,21.70
2023-04-16T14:47:58.464Z,23.15
2023-04-16T14:50:26.045Z,20.63
2023-04-16T14:52:54.667Z,20.50
2023-04-16T14:55:22.209Z,24.75
2023-04-16T14:57:50.019Z,22.92
2023-04-16T15:00:18.788Z,22.02
2023-04-16T15:02:48.379Z,19.45
2023-04-16T15:05:16.231Z,16.08
2023-04-16T15:07:44.036Z,19.10
2023-04-16T15:10:12.758Z,19.10
2023-04-16T15:12:40.666Z,21.38
2023-04-16T15:15:08.670Z,16.67
2023-04-16T15:17:36.326Z,18.15
2023-04-16T15:20:08.416Z,17.67
2023-04-16T15:22:36.304Z,21.52
2023-04-16T15:25:04.483Z,20.98
2023-04-16T15:27:32.068Z,20.75
2023-04-16T15:29:59.793Z,21.35
2023-04-16T15:32:27.468Z,24.10
2023-04-16T15:34:55.140Z,18.75
2023-04-16T15:37:22.587Z,21.80
2023-04-16T15:39:50.082Z,19.92
2023-04-16T15:42:17.603Z,18.45
2023-04-16T15:44:45.022Z,16.27
2023-04-16T15:47:12.503Z,23.05
2023-04-16T15:49:40.363Z,19.05
2023-04-16T15:52:08.056Z,17.77
2023-04-16T15:54:35.621Z,23.30
2023-04-16T15:57:03.060Z,14.40
2023-04-16T15:59:30.477Z,16.05
2023-04-16T16:01:58.051Z,22.95
2023-04-16T16:04:26.749Z,16.20
2023-04-16T16:06:54.493Z,19.83
2023-04-16T16:09:26.356Z,17.70
2023-04-16T16:11:54.683Z,15.93
2023-04-16T16:14:23.067Z,15.55
2023-04-16T16:16:50.830Z,15.35
2023-04-16T16:19:18.311Z,18.08
2023-04-16T16:21:46.058Z,19.42
2023-04-16T16:24:13.966Z,17.05
2023-04-16T16:26:41.598Z,19.25
2023-04-16T16:29:09.272Z,14.73
2023-04-16T16:31:36.992Z,20.73
2023-04-16T16:34:04.563Z,17.20
2023-04-16T16:36:36.669Z,18.13
2023-04-16T16:39:04.873Z,19.42
2023-04-16T16:41:33.032Z,19.05
2023-04-16T16:44:00.973Z,16.77
2023-04-16T16:46:28.515Z,21.88
2023-04-16T16:48:56.608Z,23.15
2023-04-16T16:51:24.355Z,21.10
2023-04-16T16:53:51.991Z,18.13
2023-04-16T16:56:22.901Z,19.50
2023-04-16T16:58:51.095Z,17.50
2023-04-16T17:01:19.006Z,18.40
2023-04-16T17:03:47.044Z,18.40
2023-04-16T17:06:14.737Z,20.02
2023-04-16T17:08:42.276Z,23.63
2023-04-16T17:11:09.986Z,19.58
2023-04-16T17:13:38.179Z,18.42
2023-04-16T17:16:06.026Z,19.25
2023-04-16T17:18:34.107Z,20.27
2023-04-16T17:21:01.755Z,21.35
2023-04-16T17:23:29.248Z,22.92
2023-04-16T17:25:58.641Z,18.85
2023-04-16T17:28:26.499Z,25.42
2023-04-16T17:30:54.444Z,21.98
2023-04-16T17:33:22.185Z,19.00
2023-04-16T17:35:49.828Z,22.67
2023-04-16T17:38:17.449Z,22.02
2023-04-16T17:40:44.956Z,22.55
2023-04-16T17:43:12.661Z,21.67
2023-04-16T17:45:40.167Z,16.52
2023-04-16T17:48:07.944Z,18.17
2023-04-16T17:50:37.529Z,21.17
2023-04-16T17:53:06.480Z,21.27
2023-04-16T17:55:34.066Z,22.58
2023-04-16T17:58:03.808Z,19.00
2023-04-16T18:00:31.450Z,17.13
2023-04-16T18:02:59.934Z,17.45
2023-04-16T18:05:27.744Z,26.60
2023-04-16T18:07:55.892Z,24.63
2023-04-16T18:10:23.513Z,20.15
2023-04-16T18:12:51.475Z,21.08
2023-04-16T18:15:19.053Z,21.38
2023-04-16T18:17:46.987Z,22.77
2023-04-16T18:20:17.033Z,21.33
2023-04-16T18:22:44.509Z,18.75
2023-04-16T18:25:12.298Z,23.60
2023-04-16T18:27:39.922Z,20.40
2023-04-16T18:30:08.246Z,18.42
2023-04-16T18:33:03.676Z,24.92
2023-04-16T18:35:30.991Z,17.73
2023-04-16T18:37:58.565Z,19.25
2023-04-16T18:40:26.202Z,21.60
2023-04-16T18:42:53.671Z,20.75
2023-04-16T18:45:22.059Z,23.05
2023-04-16T18:47:50.423Z,20.33
2023-04-16T18:50:18.269Z,22.80
2023-04-16T18:52:45.901Z,22.23
2023-04-16T18:55:13.367Z,21.45
2023-04-16T18:57:40.937Z,23.75
2023-04-16T19:00:13.018Z,24.85
2023-04-16T19:02:40.896Z,25.83
2023-04-16T19:05:09.713Z,23.35
2023-04-16T19:07:37.824Z,31.05
2023-04-16T19:10:06.028Z,25.15
2023-04-16T19:12:33.620Z,27.70
2023-04-16T19:15:01.370Z,21.98
2023-04-16T19:17:28.985Z,25.42
2023-04-16T19:19:56.584Z,19.90
2023-04-16T19:22:24.239Z,20.70
2023-04-16T19:24:51.683Z,22.65
2023-04-16T19:27:19.156Z,24.38
2023-04-16T19:29:47.221Z,19.50
2023-04-16T19:32:14.736Z,26.38
2023-04-16T19:34:42.297Z,26.50
2023-04-16T19:37:10.083Z,27.02
2023-04-16T19:39:37.654Z,26.13
2023-04-16T19:42:05.405Z,23.23
2023-04-16T19:44:32.956Z,22.38
2023-04-16T19:47:00.560Z,27.83
2023-04-16T19:49:28.326Z,24.17
2023-04-16T19:51:55.998Z,27.30
2023-04-16T19:54:23.674Z,24.50
2023-04-16T19:56:54.092Z,27.60
2023-04-16T19:59:21.779Z,28.35
2023-04-16T20:01:49.327Z,27.23
2023-04-16T20:04:16.872Z,28.70
2023-04-16T20:06:44.485Z,25.33
2023-04-16T20:09:12.268Z,27.55
2023-04-16T20:11:40.143Z,27.58
2023-04-16T20:14:08.038Z,24.55
2023-04-16T20:16:38.648Z,29.50
2023-04-16T20:19:08.749Z,28.65
2023-04-16T20:21:36.901Z,26.23
2023-04-16T20:24:04.517Z,32.10
2023-04-16T20:26:34.218Z,29.98
2023-04-16T20:29:02.073Z,31.55
2023-04-16T20:31:29.579Z,29.15
2023-04-16T20:33:57.332Z,32.65
2023-04-16T20:36:24.949Z,33.90
2023-04-16T20:38:54.041Z,32.60
2023-04-16T20:41:22.674Z,34.60
2023-04-16T20:43:50.736Z,30.73
2023-04-16T20:46:18.654Z,32.72
2023-04-16T20:48:46.293Z,25.27
2023-04-16T20:51:13.834Z,30.40
2023-04-16T20:53:41.424Z,35.65
2023-04-16T20:56:09.326Z,30.08
2023-04-16T20:58:37.234Z,30.30
2023-04-16T21:01:06.104Z,30.40
2023-04-16T21:03:34.002Z,26.52
2023-04-16T21:06:02.028Z,28.17
2023-04-16T21:08:29.498Z,24.58
2023-04-16T21:10:57.008Z,26.50
2023-04-16T21:13:24.825Z,30.25
2023-04-16T21:15:53.068Z,23.60
2023-04-16T21:18:21.026Z,22.67
2023-04-16T21:20:48.648Z,27.20
2023-04-16T21:23:16.773Z,27.60
2023-04-16T21:25:44.263Z,29.35
2023-04-16T21:28:11.790Z,27.58
2023-04-16T21:30:39.735Z,24.13
2023-04-16T21:33:07.642Z,23.58
2023-04-16T21:35:35.459Z,26.50
2023-04-16T21:38:02.996Z,26.73
2023-04-16T21:40:30.681Z,25.17
2023-04-16T21:42:58.209Z,24.63
2023-04-16T21:45:25.689Z,27.73
2023-04-16T21:47:53.291Z,24.23
2023-04-16T21:50:21.268Z,26.27
2023-04-16T21:52:48.709Z,24.27
2023-04-16T21:55:16.199Z,24.25
2023-04-16T21:57:43.776Z,29.30
2023-04-16T22:00:14.605Z,24.10
2023-04-16T22:02:43.257Z,24.95
2023-04-16T22:05:11.861Z,25.70
2023-04-16T22:07:39.430Z,27.27
2023-04-16T22:10:09.105Z,26.10
2023-04-16T22:12:38.098Z,31.65
2023-04-16T22:15:09.213Z,28.25
2023-04-16T22:17:37.142Z,31.40
2023-04-16T22:20:14.954Z,28.45
2023-04-16T22:22:43.014Z,31.92
2023-04-16T22:25:11.510Z,32.85
2023-04-16T22:27:39.314Z,29.83
2023-04-16T22:30:08.478Z,33.65
2023-04-16T22:32:36.152Z,27.33
2023-04-16T22:35:04.026Z,32.17
2023-04-16T22:37:31.611Z,29.42
2023-04-16T22:39:59.211Z,37.92
2023-04-16T22:42:27.520Z,30.67
2023-04-16T22:44:55.845Z,33.40
2023-04-16T22:47:23.606Z,34.33
2023-04-16T22:49:51.499Z,34.10
2023-04-16T22:52:19.002Z,36.30
2023-04-16T22:54:46.475Z,33.00
2023-04-16T22:57:14.621Z,41.03
2023-04-16T22:59:42.025Z,31.52
2023-04-16T23:02:09.509Z,41.55
2023-04-16T23:04:37.075Z,35.47
2023-04-16T23:07:04.638Z,39.65
2023-04-16T23:09:33.532Z,38.33
2023-04-16T23:12:02.200Z,42.53
2023-04-16T23:14:30.483Z,39.35
2023-04-16T23:16:58.984Z,32.97
2023-04-16T23:19:26.551Z,33.90
2023-04-16T23:21:54.009Z,41.60
2023-04-16T23:24:21.561Z,38.10
2023-04-16T23:26:49.583Z,40.80
2023-04-16T23:29:17.198Z,40.85
2023-04-16T23:31:44.790Z,38.97
2023-04-16T23:34:12.619Z,36.28
2023-04-16T23:36:40.950Z,42.60
2023-04-16T23:39:08.482Z,38.35
2023-04-16T23:41:36.410Z,40.03
2023-04-16T23:44:04.255Z,32.75
2023-04-16T23:46:31.787Z,36.97
2023-04-16T23:48:59.520Z,41.42
2023-04-16T23:51:26.899Z,35.53
2023-04-16T23:53:54.302Z,36.65
2023-04-16T23:56:21.887Z,40.58
2023-04-16T23:58:49.346Z,38.38
